sensor_id;sensor_type;location;lat;lon;timestamp;P1;durP1;ratioP1;P2;durP2;ratioP2
19006;SDS011;9636;47.382;8.480;2022-11-15T00:00:32;6.10;;;3.47;;
19006;SDS011;9636;47.382;8.480;2022-11-15T00:02:59;8.20;;;3.30;;
19006;SDS011;9636;47.382;8.480;2022-11-15T00:05:26;6.13;;;3.10;;
19006;SDS011;9636;47.382;8.480;2022-11-15T00:07:53;5.27;;;3.47;;
19006;SDS011;9636;47.382;8.480;2022-11-15T00:10:20;5.03;;;3.13;;
19006;SDS011;9636;47.382;8.480;2022-11-15T00:12:47;5.07;;;2.93;;
19006;SDS011;9636;47.382;8.480;2022-11-15T00:15:15;5.93;;;3.20;;
19006;SDS011;9636;47.382;8.480;2022-11-15T00:17:42;4.80;;;3.07;;
19006;SDS011;9636;47.382;8.480;2022-11-15T00:20:09;3.97;;;2.83;;
19006;SDS011;9636;47.382;8.480;2022-11-15T00:22:36;4.67;;;2.67;;
19006;SDS011;9636;47.382;8.480;2022-11-15T00:25:04;6.80;;;3.10;;
19006;SDS011;9636;47.382;8.480;2022-11-15T00:27:31;4.10;;;2.93;;
19006;SDS011;9636;47.382;8.480;2022-11-15T00:29:58;4.90;;;3.10;;
19006;SDS011;9636;47.382;8.480;2022-11-15T00:32:26;3.53;;;3.10;;
19006;SDS011;9636;47.382;8.480;2022-11-15T00:34:57;4.37;;;3.07;;
19006;SDS011;9636;47.382;8.480;2022-11-15T00:37:24;4.07;;;3.10;;
19006;SDS011;9636;47.382;8.480;2022-11-15T00:39:51;5.13;;;3.10;;
19006;SDS011;9636;47.382;8.480;2022-11-15T00:42:17;6.07;;;3.03;;
19006;SDS011;9636;47.382;8.480;2022-11-15T00:44:44;4.93;;;3.40;;
19006;SDS011;9636;47.382;8.480;2022-11-15T00:47:11;4.93;;;3.20;;
19006;SDS011;9636;47.382;8.480;2022-11-15T00:49:39;5.23;;;3.63;;
19006;SDS011;9636;47.382;8.480;2022-11-15T00:52:06;5.33;;;3.80;;
19006;SDS011;9636;47.382;8.480;2022-11-15T00:54:33;5.83;;;3.60;;
19006;SDS011;9636;47.382;8.480;2022-11-15T00:57:00;7.13;;;4.13;;
19006;SDS011;9636;47.382;8.480;2022-11-15T00:59:27;5.87;;;4.23;;
19006;SDS011;9636;47.382;8.480;2022-11-15T01:01:54;6.37;;;3.90;;
19006;SDS011;9636;47.382;8.480;2022-11-15T01:04:20;5.37;;;3.70;;
19006;SDS011;9636;47.382;8.480;2022-11-15T01:06:49;5.23;;;3.93;;
19006;SDS011;9636;47.382;8.480;2022-11-15T01:09:15;5.50;;;3.90;;
19006;SDS011;9636;47.382;8.480;2022-11-15T01:11:42;7.63;;;4.70;;
19006;SDS011;9636;47.382;8.480;2022-11-15T01:14:09;6.03;;;4.10;;
19006;SDS011;9636;47.382;8.480;2022-11-15T01:16:36;5.43;;;4.07;;
19006;SDS011;9636;47.382;8.480;2022-11-15T01:19:03;5.70;;;4.07;;
19006;SDS011;9636;47.382;8.480;2022-11-15T01:21:30;6.00;;;3.67;;
19006;SDS011;9636;47.382;8.480;2022-11-15T01:23:58;6.57;;;3.90;;
19006;SDS011;9636;47.382;8.480;2022-11-15T01:26:25;4.57;;;3.70;;
19006;SDS011;9636;47.382;8.480;2022-11-15T01:28:52;5.27;;;3.73;;
19006;SDS011;9636;47.382;8.480;2022-11-15T01:31:19;8.03;;;3.80;;
19006;SDS011;9636;47.382;8.480;2022-11-15T01:33:47;6.90;;;4.13;;
19006;SDS011;9636;47.382;8.480;2022-11-15T01:36:15;7.27;;;4.00;;
19006;SDS011;9636;47.382;8.480;2022-11-15T01:38:46;5.60;;;4.27;;
19006;SDS011;9636;47.382;8.480;2022-11-15T01:41:20;6.70;;;4.53;;
19006;SDS011;9636;47.382;8.480;2022-11-15T01:43:49;8.50;;;4.10;;
19006;SDS011;9636;47.382;8.480;2022-11-15T01:46:22;5.63;;;4.63;;
19006;SDS011;9636;47.382;8.480;2022-11-15T01:48:53;5.90;;;4.07;;
19006;SDS011;9636;47.382;8.480;2022-11-15T01:51:23;8.60;;;3.83;;
19006;SDS011;9636;47.382;8.480;2022-11-15T01:53:52;7.83;;;4.20;;
19006;SDS011;9636;47.382;8.480;2022-11-15T01:56:24;6.63;;;3.90;;
19006;SDS011;9636;47.382;8.480;2022-11-15T01:58:55;7.03;;;4.17;;
19006;SDS011;9636;47.382;8.480;2022-11-15T02:01:23;6.47;;;4.23;;
19006;SDS011;9636;47.382;8.480;2022-11-15T02:03:52;6.87;;;4.13;;
19006;SDS011;9636;47.382;8.480;2022-11-15T02:06:22;6.23;;;4.07;;
19006;SDS011;9636;47.382;8.480;2022-11-15T02:08:49;8.90;;;5.03;;
19006;SDS011;9636;47.382;8.480;2022-11-15T02:11:16;8.10;;;4.33;;
19006;SDS011;9636;47.382;8.480;2022-11-15T02:13:45;6.17;;;4.07;;
19006;SDS011;9636;47.382;8.480;2022-11-15T02:16:13;6.60;;;4.67;;
19006;SDS011;9636;47.382;8.480;2022-11-15T02:18:49;7.40;;;4.40;;
19006;SDS011;9636;47.382;8.480;2022-11-15T02:21:21;7.40;;;4.70;;
19006;SDS011;9636;47.382;8.480;2022-11-15T02:24:11;6.07;;;4.57;;
19006;SDS011;9636;47.382;8.480;2022-11-15T02:27:01;8.60;;;3.80;;
19006;SDS011;9636;47.382;8.480;2022-11-15T02:29:56;4.63;;;3.63;;
19006;SDS011;9636;47.382;8.480;2022-11-15T02:32:34;6.50;;;4.17;;
19006;SDS011;9636;47.382;8.480;2022-11-15T02:35:09;6.40;;;3.77;;
19006;SDS011;9636;47.382;8.480;2022-11-15T02:37:43;6.60;;;4.23;;
19006;SDS011;9636;47.382;8.480;2022-11-15T02:40:17;7.47;;;4.17;;
19006;SDS011;9636;47.382;8.480;2022-11-15T02:42:54;5.50;;;3.93;;
19006;SDS011;9636;47.382;8.480;2022-11-15T02:45:41;6.67;;;4.40;;
19006;SDS011;9636;47.382;8.480;2022-11-15T02:48:12;6.73;;;3.87;;
19006;SDS011;9636;47.382;8.480;2022-11-15T02:50:41;5.10;;;4.00;;
19006;SDS011;9636;47.382;8.480;2022-11-15T02:53:09;7.50;;;3.93;;
19006;SDS011;9636;47.382;8.480;2022-11-15T02:55:36;6.47;;;3.77;;
19006;SDS011;9636;47.382;8.480;2022-11-15T02:58:11;6.47;;;3.80;;
19006;SDS011;9636;47.382;8.480;2022-11-15T03:00:51;6.90;;;4.57;;
19006;SDS011;9636;47.382;8.480;2022-11-15T03:06:21;6.03;;;4.30;;
19006;SDS011;9636;47.382;8.480;2022-11-15T03:08:57;7.37;;;4.40;;
19006;SDS011;9636;47.382;8.480;2022-11-15T03:11:31;6.67;;;4.43;;
19006;SDS011;9636;47.382;8.480;2022-11-15T03:14:02;6.53;;;4.50;;
19006;SDS011;9636;47.382;8.480;2022-11-15T03:16:40;5.20;;;3.93;;
19006;SDS011;9636;47.382;8.480;2022-11-15T03:19:16;4.93;;;3.77;;
19006;SDS011;9636;47.382;8.480;2022-11-15T03:21:48;4.33;;;3.83;;
19006;SDS011;9636;47.382;8.480;2022-11-15T03:24:16;6.27;;;3.83;;
19006;SDS011;9636;47.382;8.480;2022-11-15T03:26:45;5.50;;;3.97;;
19006;SDS011;9636;47.382;8.480;2022-11-15T03:29:17;5.23;;;3.97;;
19006;SDS011;9636;47.382;8.480;2022-11-15T03:31:51;8.20;;;4.30;;
19006;SDS011;9636;47.382;8.480;2022-11-15T03:34:25;8.37;;;4.10;;
19006;SDS011;9636;47.382;8.480;2022-11-15T03:36:55;8.53;;;4.50;;
19006;SDS011;9636;47.382;8.480;2022-11-15T03:39:22;10.60;;;4.33;;
19006;SDS011;9636;47.382;8.480;2022-11-15T03:41:52;6.93;;;4.27;;
19006;SDS011;9636;47.382;8.480;2022-11-15T03:44:31;7.00;;;4.43;;
19006;SDS011;9636;47.382;8.480;2022-11-15T03:47:03;7.77;;;4.70;;
19006;SDS011;9636;47.382;8.480;2022-11-15T03:49:36;7.43;;;4.70;;
19006;SDS011;9636;47.382;8.480;2022-11-15T03:52:08;5.97;;;4.77;;
19006;SDS011;9636;47.382;8.480;2022-11-15T03:54:36;6.83;;;4.50;;
19006;SDS011;9636;47.382;8.480;2022-11-15T03:57:13;6.83;;;4.20;;
19006;SDS011;9636;47.382;8.480;2022-11-15T03:59:40;8.27;;;4.43;;
19006;SDS011;9636;47.382;8.480;2022-11-15T04:02:07;6.00;;;4.67;;
19006;SDS011;9636;47.382;8.480;2022-11-15T04:04:34;7.70;;;5.07;;
19006;SDS011;9636;47.382;8.480;2022-11-15T04:07:02;9.13;;;4.83;;
19006;SDS011;9636;47.382;8.480;2022-11-15T04:09:29;6.97;;;4.93;;
19006;SDS011;9636;47.382;8.480;2022-11-15T04:11:55;9.30;;;4.90;;
19006;SDS011;9636;47.382;8.480;2022-11-15T04:14:22;4.77;;;3.97;;
19006;SDS011;9636;47.382;8.480;2022-11-15T04:16:49;5.00;;;4.20;;
19006;SDS011;9636;47.382;8.480;2022-11-15T04:19:16;7.77;;;4.07;;
19006;SDS011;9636;47.382;8.480;2022-11-15T04:22:02;4.03;;;3.33;;
19006;SDS011;9636;47.382;8.480;2022-11-15T04:24:58;5.10;;;3.77;;
19006;SDS011;9636;47.382;8.480;2022-11-15T04:27:24;5.40;;;3.40;;
19006;SDS011;9636;47.382;8.480;2022-11-15T04:29:51;7.30;;;3.53;;
19006;SDS011;9636;47.382;8.480;2022-11-15T04:32:18;6.07;;;3.53;;
19006;SDS011;9636;47.382;8.480;2022-11-15T04:34:45;5.67;;;3.63;;
19006;SDS011;9636;47.382;8.480;2022-11-15T04:37:13;6.47;;;3.10;;
19006;SDS011;9636;47.382;8.480;2022-11-15T04:39:40;4.10;;;3.20;;
19006;SDS011;9636;47.382;8.480;2022-11-15T04:42:08;5.03;;;3.57;;
19006;SDS011;9636;47.382;8.480;2022-11-15T04:44:35;5.60;;;3.37;;
19006;SDS011;9636;47.382;8.480;2022-11-15T04:47:02;8.53;;;3.93;;
19006;SDS011;9636;47.382;8.480;2022-11-15T04:49:29;5.03;;;3.23;;
19006;SDS011;9636;47.382;8.480;2022-11-15T04:51:56;6.47;;;3.70;;
19006;SDS011;9636;47.382;8.480;2022-11-15T04:54:24;6.07;;;3.87;;
19006;SDS011;9636;47.382;8.480;2022-11-15T04:56:51;5.43;;;3.40;;
19006;SDS011;9636;47.382;8.480;2022-11-15T04:59:17;5.00;;;3.17;;
19006;SDS011;9636;47.382;8.480;2022-11-15T05:01:44;3.83;;;3.13;;
19006;SDS011;9636;47.382;8.480;2022-11-15T05:04:11;3.90;;;3.03;;
19006;SDS011;9636;47.382;8.480;2022-11-15T05:06:49;5.00;;;3.50;;
19006;SDS011;9636;47.382;8.480;2022-11-15T05:09:17;5.83;;;3.77;;
19006;SDS011;9636;47.382;8.480;2022-11-15T05:11:46;5.40;;;3.70;;
19006;SDS011;9636;47.382;8.480;2022-11-15T05:14:14;7.20;;;4.10;;
19006;SDS011;9636;47.382;8.480;2022-11-15T05:16:41;6.03;;;3.60;;
19006;SDS011;9636;47.382;8.480;2022-11-15T05:19:08;5.20;;;3.97;;
19006;SDS011;9636;47.382;8.480;2022-11-15T05:21:35;5.37;;;4.17;;
19006;SDS011;9636;47.382;8.480;2022-11-15T05:24:03;7.07;;;4.07;;
19006;SDS011;9636;47.382;8.480;2022-11-15T05:26:30;5.97;;;4.07;;
19006;SDS011;9636;47.382;8.480;2022-11-15T05:28:59;5.00;;;4.07;;
19006;SDS011;9636;47.382;8.480;2022-11-15T05:31:26;5.97;;;4.27;;
19006;SDS011;9636;47.382;8.480;2022-11-15T05:33:54;6.30;;;4.90;;
19006;SDS011;9636;47.382;8.480;2022-11-15T05:36:25;8.53;;;4.83;;
19006;SDS011;9636;47.382;8.480;2022-11-15T05:38:55;5.80;;;4.43;;
19006;SDS011;9636;47.382;8.480;2022-11-15T05:41:24;6.67;;;4.57;;
19006;SDS011;9636;47.382;8.480;2022-11-15T05:43:55;10.70;;;5.00;;
19006;SDS011;9636;47.382;8.480;2022-11-15T05:46:23;5.97;;;4.27;;
19006;SDS011;9636;47.382;8.480;2022-11-15T05:48:50;6.07;;;4.23;;
19006;SDS011;9636;47.382;8.480;2022-11-15T05:51:19;7.00;;;4.33;;
19006;SDS011;9636;47.382;8.480;2022-11-15T05:53:48;7.63;;;4.00;;
19006;SDS011;9636;47.382;8.480;2022-11-15T05:56:16;6.37;;;4.60;;
19006;SDS011;9636;47.382;8.480;2022-11-15T05:58:43;5.60;;;4.33;;
19006;SDS011;9636;47.382;8.480;2022-11-15T06:01:10;7.37;;;4.57;;
19006;SDS011;9636;47.382;8.480;2022-11-15T06:03:38;6.83;;;4.30;;
19006;SDS011;9636;47.382;8.480;2022-11-15T06:06:05;5.93;;;4.10;;
19006;SDS011;9636;47.382;8.480;2022-11-15T06:08:32;5.57;;;4.47;;
19006;SDS011;9636;47.382;8.480;2022-11-15T06:11:02;9.70;;;4.50;;
19006;SDS011;9636;47.382;8.480;2022-11-15T06:13:30;5.57;;;3.90;;
19006;SDS011;9636;47.382;8.480;2022-11-15T06:15:57;6.80;;;4.30;;
19006;SDS011;9636;47.382;8.480;2022-11-15T06:18:24;5.03;;;3.97;;
19006;SDS011;9636;47.382;8.480;2022-11-15T06:20:54;8.00;;;5.10;;
19006;SDS011;9636;47.382;8.480;2022-11-15T06:23:24;8.13;;;4.50;;
19006;SDS011;9636;47.382;8.480;2022-11-15T06:25:51;8.00;;;4.93;;
19006;SDS011;9636;47.382;8.480;2022-11-15T06:28:18;9.87;;;5.40;;
19006;SDS011;9636;47.382;8.480;2022-11-15T06:30:45;7.20;;;4.80;;
19006;SDS011;9636;47.382;8.480;2022-11-15T06:33:12;6.70;;;4.43;;
19006;SDS011;9636;47.382;8.480;2022-11-15T06:35:38;11.00;;;7.17;;
19006;SDS011;9636;47.382;8.480;2022-11-15T06:38:07;9.53;;;7.57;;
19006;SDS011;9636;47.382;8.480;2022-11-15T06:40:36;7.90;;;6.27;;
19006;SDS011;9636;47.382;8.480;2022-11-15T06:43:04;8.57;;;6.10;;
19006;SDS011;9636;47.382;8.480;2022-11-15T06:45:31;9.93;;;5.60;;
19006;SDS011;9636;47.382;8.480;2022-11-15T06:47:58;7.60;;;4.83;;
19006;SDS011;9636;47.382;8.480;2022-11-15T06:50:25;7.30;;;4.53;;
19006;SDS011;9636;47.382;8.480;2022-11-15T06:52:52;8.10;;;5.43;;
19006;SDS011;9636;47.382;8.480;2022-11-15T06:55:20;9.40;;;6.93;;
19006;SDS011;9636;47.382;8.480;2022-11-15T06:57:48;6.17;;;4.67;;
19006;SDS011;9636;47.382;8.480;2022-11-15T07:00:16;7.23;;;5.23;;
19006;SDS011;9636;47.382;8.480;2022-11-15T07:02:44;8.37;;;5.50;;
19006;SDS011;9636;47.382;8.480;2022-11-15T07:05:11;12.27;;;6.10;;
19006;SDS011;9636;47.382;8.480;2022-11-15T07:07:38;13.03;;;6.43;;
19006;SDS011;9636;47.382;8.480;2022-11-15T07:10:05;10.13;;;6.47;;
19006;SDS011;9636;47.382;8.480;2022-11-15T07:12:34;9.67;;;6.60;;
19006;SDS011;9636;47.382;8.480;2022-11-15T07:15:01;8.87;;;5.70;;
19006;SDS011;9636;47.382;8.480;2022-11-15T07:17:28;9.03;;;6.30;;
19006;SDS011;9636;47.382;8.480;2022-11-15T07:19:55;7.77;;;5.53;;
19006;SDS011;9636;47.382;8.480;2022-11-15T07:22:22;9.40;;;5.30;;
19006;SDS011;9636;47.382;8.480;2022-11-15T07:24:48;8.20;;;5.50;;
19006;SDS011;9636;47.382;8.480;2022-11-15T07:27:15;5.77;;;4.83;;
19006;SDS011;9636;47.382;8.480;2022-11-15T07:29:43;10.40;;;5.63;;
19006;SDS011;9636;47.382;8.480;2022-11-15T07:32:10;9.70;;;5.63;;
19006;SDS011;9636;47.382;8.480;2022-11-15T07:34:37;10.03;;;6.00;;
19006;SDS011;9636;47.382;8.480;2022-11-15T07:37:04;11.10;;;6.43;;
19006;SDS011;9636;47.382;8.480;2022-11-15T07:39:30;8.37;;;6.67;;
19006;SDS011;9636;47.382;8.480;2022-11-15T07:41:58;9.90;;;6.57;;
19006;SDS011;9636;47.382;8.480;2022-11-15T07:44:39;9.63;;;6.70;;
19006;SDS011;9636;47.382;8.480;2022-11-15T07:47:07;11.83;;;7.33;;
19006;SDS011;9636;47.382;8.480;2022-11-15T07:49:34;9.60;;;7.17;;
19006;SDS011;9636;47.382;8.480;2022-11-15T07:52:00;11.70;;;7.13;;
19006;SDS011;9636;47.382;8.480;2022-11-15T07:54:27;8.20;;;6.73;;
19006;SDS011;9636;47.382;8.480;2022-11-15T07:56:54;9.40;;;6.73;;
19006;SDS011;9636;47.382;8.480;2022-11-15T07:59:21;9.37;;;6.67;;
19006;SDS011;9636;47.382;8.480;2022-11-15T08:01:48;11.53;;;6.50;;
19006;SDS011;9636;47.382;8.480;2022-11-15T08:04:16;8.03;;;6.17;;
19006;SDS011;9636;47.382;8.480;2022-11-15T08:06:43;8.30;;;5.83;;
19006;SDS011;9636;47.382;8.480;2022-11-15T08:09:09;10.87;;;6.40;;
19006;SDS011;9636;47.382;8.480;2022-11-15T08:11:36;9.57;;;6.80;;
19006;SDS011;9636;47.382;8.480;2022-11-15T08:14:03;11.23;;;6.63;;
19006;SDS011;9636;47.382;8.480;2022-11-15T08:16:30;9.27;;;5.90;;
19006;SDS011;9636;47.382;8.480;2022-11-15T08:18:57;9.67;;;6.67;;
19006;SDS011;9636;47.382;8.480;2022-11-15T08:21:25;9.30;;;6.90;;
19006;SDS011;9636;47.382;8.480;2022-11-15T08:23:52;11.97;;;6.37;;
19006;SDS011;9636;47.382;8.480;2022-11-15T08:26:19;9.17;;;6.23;;
19006;SDS011;9636;47.382;8.480;2022-11-15T08:28:45;10.73;;;6.87;;
19006;SDS011;9636;47.382;8.480;2022-11-15T08:31:13;8.33;;;6.43;;
19006;SDS011;9636;47.382;8.480;2022-11-15T08:33:42;9.80;;;6.13;;
19006;SDS011;9636;47.382;8.480;2022-11-15T08:36:11;11.17;;;6.63;;
19006;SDS011;9636;47.382;8.480;2022-11-15T08:38:41;9.30;;;6.57;;
19006;SDS011;9636;47.382;8.480;2022-11-15T08:41:09;8.90;;;6.17;;
19006;SDS011;9636;47.382;8.480;2022-11-15T08:43:39;12.17;;;6.90;;
19006;SDS011;9636;47.382;8.480;2022-11-15T08:46:07;14.17;;;7.50;;
19006;SDS011;9636;47.382;8.480;2022-11-15T08:48:37;9.23;;;7.07;;
19006;SDS011;9636;47.382;8.480;2022-11-15T08:51:04;11.97;;;7.50;;
19006;SDS011;9636;47.382;8.480;2022-11-15T08:53:31;9.27;;;7.37;;
19006;SDS011;9636;47.382;8.480;2022-11-15T08:55:59;11.30;;;7.60;;
19006;SDS011;9636;47.382;8.480;2022-11-15T08:58:26;9.97;;;7.17;;
19006;SDS011;9636;47.382;8.480;2022-11-15T09:00:52;10.30;;;7.13;;
19006;SDS011;9636;47.382;8.480;2022-11-15T09:03:19;8.93;;;6.47;;
19006;SDS011;9636;47.382;8.480;2022-11-15T09:05:46;10.60;;;7.27;;
19006;SDS011;9636;47.382;8.480;2022-11-15T09:08:13;13.03;;;6.93;;
19006;SDS011;9636;47.382;8.480;2022-11-15T09:10:40;10.17;;;6.73;;
19006;SDS011;9636;47.382;8.480;2022-11-15T09:13:08;10.13;;;7.27;;
19006;SDS011;9636;47.382;8.480;2022-11-15T09:15:34;9.67;;;7.47;;
19006;SDS011;9636;47.382;8.480;2022-11-15T09:18:01;10.70;;;7.40;;
19006;SDS011;9636;47.382;8.480;2022-11-15T09:20:28;9.23;;;7.40;;
19006;SDS011;9636;47.382;8.480;2022-11-15T09:22:58;11.43;;;7.53;;
19006;SDS011;9636;47.382;8.480;2022-11-15T09:25:26;9.07;;;6.97;;
19006;SDS011;9636;47.382;8.480;2022-11-15T09:27:53;10.90;;;7.30;;
19006;SDS011;9636;47.382;8.480;2022-11-15T09:30:21;10.63;;;7.70;;
19006;SDS011;9636;47.382;8.480;2022-11-15T09:32:48;11.50;;;7.43;;
19006;SDS011;9636;47.382;8.480;2022-11-15T09:35:15;13.93;;;7.10;;
19006;SDS011;9636;47.382;8.480;2022-11-15T09:37:42;11.47;;;7.23;;
19006;SDS011;9636;47.382;8.480;2022-11-15T09:40:10;11.13;;;7.30;;
19006;SDS011;9636;47.382;8.480;2022-11-15T09:42:46;10.90;;;7.57;;
19006;SDS011;9636;47.382;8.480;2022-11-15T09:45:23;11.93;;;8.03;;
19006;SDS011;9636;47.382;8.480;2022-11-15T09:48:13;11.63;;;7.83;;
19006;SDS011;9636;47.382;8.480;2022-11-15T09:50:52;13.53;;;8.27;;
19006;SDS011;9636;47.382;8.480;2022-11-15T09:53:25;11.60;;;8.23;;
19006;SDS011;9636;47.382;8.480;2022-11-15T09:55:57;12.83;;;8.60;;
19006;SDS011;9636;47.382;8.480;2022-11-15T09:58:26;13.67;;;8.20;;
19006;SDS011;9636;47.382;8.480;2022-11-15T10:01:03;13.17;;;9.07;;
19006;SDS011;9636;47.382;8.480;2022-11-15T10:03:34;11.37;;;8.77;;
19006;SDS011;9636;47.382;8.480;2022-11-15T10:06:04;15.50;;;8.97;;
19006;SDS011;9636;47.382;8.480;2022-11-15T10:08:43;16.23;;;9.30;;
19006;SDS011;9636;47.382;8.480;2022-11-15T10:11:23;12.77;;;8.63;;
19006;SDS011;9636;47.382;8.480;2022-11-15T10:13:52;11.93;;;9.30;;
19006;SDS011;9636;47.382;8.480;2022-11-15T10:16:34;11.87;;;9.00;;
19006;SDS011;9636;47.382;8.480;2022-11-15T10:19:28;13.77;;;9.53;;
19006;SDS011;9636;47.382;8.480;2022-11-15T10:22:04;13.27;;;9.00;;
19006;SDS011;9636;47.382;8.480;2022-11-15T10:24:43;11.30;;;8.77;;
19006;SDS011;9636;47.382;8.480;2022-11-15T10:27:12;12.90;;;9.00;;
19006;SDS011;9636;47.382;8.480;2022-11-15T10:29:43;14.43;;;9.40;;
19006;SDS011;9636;47.382;8.480;2022-11-15T10:32:13;12.93;;;9.10;;
19006;SDS011;9636;47.382;8.480;2022-11-15T10:34:42;15.87;;;9.60;;
19006;SDS011;9636;47.382;8.480;2022-11-15T10:37:09;13.77;;;10.00;;
19006;SDS011;9636;47.382;8.480;2022-11-15T10:39:36;13.97;;;9.03;;
19006;SDS011;9636;47.382;8.480;2022-11-15T10:42:16;13.50;;;9.60;;
19006;SDS011;9636;47.382;8.480;2022-11-15T10:44:51;13.40;;;10.00;;
19006;SDS011;9636;47.382;8.480;2022-11-15T10:47:23;14.70;;;9.30;;
19006;SDS011;9636;47.382;8.480;2022-11-15T10:49:58;13.03;;;9.80;;
19006;SDS011;9636;47.382;8.480;2022-11-15T10:52:27;15.70;;;10.40;;
19006;SDS011;9636;47.382;8.480;2022-11-15T10:54:56;15.17;;;10.20;;
19006;SDS011;9636;47.382;8.480;2022-11-15T10:57:28;12.77;;;9.67;;
19006;SDS011;9636;47.382;8.480;2022-11-15T10:59:58;11.93;;;10.17;;
19006;SDS011;9636;47.382;8.480;2022-11-15T11:02:29;15.00;;;9.70;;
19006;SDS011;9636;47.382;8.480;2022-11-15T11:04:58;15.30;;;9.83;;
19006;SDS011;9636;47.382;8.480;2022-11-15T11:07:27;15.17;;;10.70;;
19006;SDS011;9636;47.382;8.480;2022-11-15T11:09:57;13.63;;;10.23;;
19006;SDS011;9636;47.382;8.480;2022-11-15T11:12:29;14.50;;;10.37;;
19006;SDS011;9636;47.382;8.480;2022-11-15T11:14:58;12.83;;;9.63;;
19006;SDS011;9636;47.382;8.480;2022-11-15T11:17:32;14.83;;;10.83;;
19006;SDS011;9636;47.382;8.480;2022-11-15T11:20:07;16.03;;;10.60;;
19006;SDS011;9636;47.382;8.480;2022-11-15T11:22:46;14.10;;;10.00;;
19006;SDS011;9636;47.382;8.480;2022-11-15T11:25:26;14.03;;;9.20;;
19006;SDS011;9636;47.382;8.480;2022-11-15T11:30:53;12.50;;;9.13;;
19006;SDS011;9636;47.382;8.480;2022-11-15T11:33:27;13.83;;;9.67;;
19006;SDS011;9636;47.382;8.480;2022-11-15T11:36:08;11.10;;;8.70;;
19006;SDS011;9636;47.382;8.480;2022-11-15T11:38:45;16.97;;;9.83;;
19006;SDS011;9636;47.382;8.480;2022-11-15T11:41:23;13.43;;;9.97;;
19006;SDS011;9636;47.382;8.480;2022-11-15T11:44:04;14.17;;;10.83;;
19006;SDS011;9636;47.382;8.480;2022-11-15T11:46:51;17.73;;;10.43;;
19006;SDS011;9636;47.382;8.480;2022-11-15T11:49:25;18.27;;;11.30;;
19006;SDS011;9636;47.382;8.480;2022-11-15T11:52:00;14.60;;;9.90;;
19006;SDS011;9636;47.382;8.480;2022-11-15T11:54:40;13.50;;;7.90;;
19006;SDS011;9636;47.382;8.480;2022-11-15T11:57:16;12.13;;;6.90;;
19006;SDS011;9636;47.382;8.480;2022-11-15T11:59:53;11.20;;;7.10;;
19006;SDS011;9636;47.382;8.480;2022-11-15T12:02:26;11.73;;;6.43;;
19006;SDS011;9636;47.382;8.480;2022-11-15T12:05:01;11.13;;;6.60;;
19006;SDS011;9636;47.382;8.480;2022-11-15T12:07:35;9.63;;;6.20;;
19006;SDS011;9636;47.382;8.480;2022-11-15T12:10:11;10.37;;;6.00;;
19006;SDS011;9636;47.382;8.480;2022-11-15T12:12:44;9.50;;;5.87;;
19006;SDS011;9636;47.382;8.480;2022-11-15T12:15:17;7.40;;;5.57;;
19006;SDS011;9636;47.382;8.480;2022-11-15T12:17:46;7.67;;;5.83;;
19006;SDS011;9636;47.382;8.480;2022-11-15T12:20:17;74.40;;;9.23;;
19006;SDS011;9636;47.382;8.480;2022-11-15T12:22:47;14.47;;;7.17;;
19006;SDS011;9636;47.382;8.480;2022-11-15T12:25:20;15.73;;;6.30;;
19006;SDS011;9636;47.382;8.480;2022-11-15T12:27:50;16.90;;;6.00;;
19006;SDS011;9636;47.382;8.480;2022-11-15T12:30:21;23.17;;;7.43;;
19006;SDS011;9636;47.382;8.480;2022-11-15T12:32:50;22.30;;;7.17;;
19006;SDS011;9636;47.382;8.480;2022-11-15T12:35:32;15.80;;;7.03;;
19006;SDS011;9636;47.382;8.480;2022-11-15T12:38:02;12.70;;;6.77;;
19006;SDS011;9636;47.382;8.480;2022-11-15T12:40:34;15.53;;;6.60;;
19006;SDS011;9636;47.382;8.480;2022-11-15T12:46:08;9.77;;;6.53;;
19006;SDS011;9636;47.382;8.480;2022-11-15T12:54:49;11.10;;;6.83;;
19006;SDS011;9636;47.382;8.480;2022-11-15T12:57:25;7.93;;;5.97;;
19006;SDS011;9636;47.382;8.480;2022-11-15T12:59:58;11.07;;;6.23;;
19006;SDS011;9636;47.382;8.480;2022-11-15T13:02:29;9.77;;;5.67;;
19006;SDS011;9636;47.382;8.480;2022-11-15T13:08:07;6.07;;;3.90;;
19006;SDS011;9636;47.382;8.480;2022-11-15T13:10:34;4.57;;;3.30;;
19006;SDS011;9636;47.382;8.480;2022-11-15T13:13:01;8.10;;;3.63;;
19006;SDS011;9636;47.382;8.480;2022-11-15T13:15:31;4.70;;;3.57;;
19006;SDS011;9636;47.382;8.480;2022-11-15T13:20:52;4.77;;;3.60;;
19006;SDS011;9636;47.382;8.480;2022-11-15T13:23:20;5.93;;;3.73;;
19006;SDS011;9636;47.382;8.480;2022-11-15T13:25:57;6.07;;;4.40;;
19006;SDS011;9636;47.382;8.480;2022-11-15T13:28:46;9.80;;;4.50;;
19006;SDS011;9636;47.382;8.480;2022-11-15T13:31:19;7.80;;;4.37;;
19006;SDS011;9636;47.382;8.480;2022-11-15T13:33:52;7.03;;;4.43;;
19006;SDS011;9636;47.382;8.480;2022-11-15T13:36:22;7.47;;;4.63;;
19006;SDS011;9636;47.382;8.480;2022-11-15T13:38:55;6.90;;;4.57;;
19006;SDS011;9636;47.382;8.480;2022-11-15T13:41:24;6.20;;;4.90;;
19006;SDS011;9636;47.382;8.480;2022-11-15T13:43:53;7.47;;;4.53;;
19006;SDS011;9636;47.382;8.480;2022-11-15T13:46:22;6.33;;;4.50;;
19006;SDS011;9636;47.382;8.480;2022-11-15T13:48:51;9.27;;;4.87;;
19006;SDS011;9636;47.382;8.480;2022-11-15T13:51:21;7.43;;;4.20;;
19006;SDS011;9636;47.382;8.480;2022-11-15T13:53:52;7.07;;;4.03;;
19006;SDS011;9636;47.382;8.480;2022-11-15T13:56:33;6.40;;;4.10;;
19006;SDS011;9636;47.382;8.480;2022-11-15T13:59:07;7.23;;;4.07;;
19006;SDS011;9636;47.382;8.480;2022-11-15T14:01:35;6.80;;;3.90;;
19006;SDS011;9636;47.382;8.480;2022-11-15T14:04:02;5.93;;;3.70;;
19006;SDS011;9636;47.382;8.480;2022-11-15T14:06:29;5.60;;;4.07;;
19006;SDS011;9636;47.382;8.480;2022-11-15T14:09:00;8.63;;;3.90;;
19006;SDS011;9636;47.382;8.480;2022-11-15T14:11:49;5.33;;;3.60;;
19006;SDS011;9636;47.382;8.480;2022-11-15T14:14:17;8.53;;;4.07;;
19006;SDS011;9636;47.382;8.480;2022-11-15T14:16:47;4.57;;;3.50;;
19006;SDS011;9636;47.382;8.480;2022-11-15T14:19:34;8.30;;;3.93;;
19006;SDS011;9636;47.382;8.480;2022-11-15T14:22:13;4.97;;;3.70;;
19006;SDS011;9636;47.382;8.480;2022-11-15T14:24:44;8.07;;;4.10;;
19006;SDS011;9636;47.382;8.480;2022-11-15T14:27:16;5.27;;;3.57;;
19006;SDS011;9636;47.382;8.480;2022-11-15T14:29:54;10.40;;;4.07;;
19006;SDS011;9636;47.382;8.480;2022-11-15T14:32:21;5.47;;;3.63;;
19006;SDS011;9636;47.382;8.480;2022-11-15T14:34:53;7.07;;;4.13;;
19006;SDS011;9636;47.382;8.480;2022-11-15T14:37:22;7.33;;;3.93;;
19006;SDS011;9636;47.382;8.480;2022-11-15T14:39:52;6.93;;;3.87;;
19006;SDS011;9636;47.382;8.480;2022-11-15T14:42:20;5.90;;;4.17;;
19006;SDS011;9636;47.382;8.480;2022-11-15T14:44:48;7.20;;;5.00;;
19006;SDS011;9636;47.382;8.480;2022-11-15T14:47:15;8.83;;;4.63;;
19006;SDS011;9636;47.382;8.480;2022-11-15T14:49:42;6.70;;;4.33;;
19006;SDS011;9636;47.382;8.480;2022-11-15T14:54:54;9.40;;;4.10;;
19006;SDS011;9636;47.382;8.480;2022-11-15T14:57:21;9.03;;;4.40;;
19006;SDS011;9636;47.382;8.480;2022-11-15T14:59:48;5.60;;;4.03;;
19006;SDS011;9636;47.382;8.480;2022-11-15T15:02:17;10.00;;;4.40;;
19006;SDS011;9636;47.382;8.480;2022-11-15T15:04:45;7.43;;;4.20;;
19006;SDS011;9636;47.382;8.480;2022-11-15T15:07:12;8.17;;;3.97;;
19006;SDS011;9636;47.382;8.480;2022-11-15T15:09:40;7.63;;;4.30;;
19006;SDS011;9636;47.382;8.480;2022-11-15T15:12:12;6.23;;;3.90;;
19006;SDS011;9636;47.382;8.480;2022-11-15T15:14:42;6.87;;;4.03;;
19006;SDS011;9636;47.382;8.480;2022-11-15T15:17:09;7.73;;;4.37;;
19006;SDS011;9636;47.382;8.480;2022-11-15T15:19:36;10.87;;;4.60;;
19006;SDS011;9636;47.382;8.480;2022-11-15T15:22:03;9.73;;;4.50;;
19006;SDS011;9636;47.382;8.480;2022-11-15T15:24:30;10.63;;;4.10;;
19006;SDS011;9636;47.382;8.480;2022-11-15T15:26:58;7.93;;;4.37;;
19006;SDS011;9636;47.382;8.480;2022-11-15T15:29:26;5.67;;;3.83;;
19006;SDS011;9636;47.382;8.480;2022-11-15T15:31:53;8.20;;;3.90;;
19006;SDS011;9636;47.382;8.480;2022-11-15T15:34:19;5.77;;;3.77;;
19006;SDS011;9636;47.382;8.480;2022-11-15T15:36:46;7.63;;;3.87;;
19006;SDS011;9636;47.382;8.480;2022-11-15T15:39:13;5.23;;;3.47;;